首页
METAR-TAF:

METAR-TAF

机场 :

科利佐沃國際機場

葉卡捷琳堡, 俄罗斯

纬度: 56-50N, 经度: 060-38E, 海拔: 237米

当前天气观测

该预报发布于29分钟前的17:30 UTC
风速8节,风向西转西北
温度 20°C
湿度 53%
气压 1005 hPa
能见度10公里或以上
1500米以下无云,无积雨云

METAR: USSS 231730Z 30004MPS CAVOK 20/10 Q1005 R26L/010060 R26R/010060 NOSIG RMK QFE734/0978

时间: 22:59 (17:59 UTC)

预报

该预报发布于1小时和8分钟前的16:51 UTC
预报有效从23日的 18点(UTC)到 24日的 18点(UTC)
风速10节,风向西北
能见度10公里或以上
散云层高于2000英尺, 积雨云.
短暂存在
从 23日的 18点(UTC)到 23日的 23点(UTC)
能見度: 6000
小阵雨

TAF: USSS 231651Z 2318/2418 32005MPS 9999 SCT020CB TEMPO 2318/2323 6000 -SHRA

超过4000个机场的气象观测和天气预报(METAR&TAF报告)。

可查询的气象台以黄色和红色小点在地图上表示。

将鼠标移到小点上方,可查看气象台名称。

然后点击查看天气观测和预报。

如需切换地图:点击带黑十字的绿色按钮放大地图;点击带横线的绿色按钮缩小地图;或者点击绿色箭头查看邻近地区的地图。


METAR-TAF: